AirNav   Everest Fuels
 
 355 users online  

NV72 Sweetwater (US Marine Corps) Airport
Wellington, Nevada, USA

GOING TO WELLINGTON?


FAA INFORMATION EFFECTIVE 21 MAY 2020

Location

FAA Identifier: NV72
Lat/Long: 38-30-54.0000N 119-12-49.0000W
38-30.900000N 119-12.816667W
38.5150000,-119.2136111
(estimated)
Elevation: 6837 ft. / 2084 m (estimated)
Variation: 15E (1995)
From city: 16 miles SE of WELLINGTON, NV
Time zone: UTC -7 (UTC -8 during Standard Time)
Zip code: 89444

Airport Operations

Airport use: Private use. Permission required prior to landing
Activation date: 12/1994
Control tower: no
ARTCC: OAKLAND CENTER
FSS: RENO FLIGHT SERVICE STATION
Attendance: UNATNDD
Segmented circle: no

Airport Communications

CTAF: 122.9

Airport Services

Runway Information

Runway 18/36

Dimensions: 3700 x 60 ft. / 1128 x 18 m
Surface: dirt
RUNWAY 18  RUNWAY 36
Traffic pattern: leftleft

Airport Ownership and Management from official FAA records

Ownership: U.S. Navy
Owner: US MARINE CORPS
MARINE CORP MTN WAR TRNG CTR
BRIDGEPORT, CA 93517-5001
Phone 760-932-1445
Manager: CAPT. J.M. GEISLER
MARINE CORP MTN WAR TRNG CTR
BRIDGEPORT, CA 93517-5001
Phone 760-932-1445

Additional Remarks

FOR CD CTC OAKLAND ARTCC AT 510-745-3380.

Instrument Procedures

There are no published instrument procedures at NV72.

Some nearby airports with instrument procedures:

KHTH - Hawthorne Industrial Airport (27 nm E)
KMEV - Minden-Tahoe Airport (38 nm NW)
KTVL - Lake Tahoe Airport (43 nm NW)
KCXP - Carson Airport (47 nm NW)
KSPZ - Silver Springs Airport (53 nm N)
 
Loc | Ops | Rwys | IFR | FBO | Links
Com | Nav | Svcs | Stats | Notes
Area around NV72 (Sweetwater (US Marine Corps) Airport)
 
Road maps at: MapQuest Bing Google
 
Aerial photo
WARNING: Photo may not be current or correct
Aerial photo of NV72 (Sweetwater (US Marine Corps) Airport)
Photo by Peter Valchev
Photo taken 05-Mar-2018
looking east.

Do you have a better or more recent aerial photo of Sweetwater (US Marine Corps) Airport that you would like to share? If so, please send us your photo.

 
Sectional chart

 
Airport distance calculator
Flying to Sweetwater (US Marine Corps) Airport? Find the distance to fly.

From to NV72

Sunrise and sunset
Times for 29-May-2020
 Local
(UTC-7)
 Zulu
(UTC)
Morning civil twilight05:0512:05
Sunrise05:3612:36
Sunset20:1303:13
Evening civil twilight20:4403:44

Current date and time
Zulu (UTC)  29-May-2020 08:29:59
Local (UTC-7)  29-May-2020 01:29:59
 
METAR
KBAN 
17nm SW 
290752Z AUTO 00000KT 10SM CLR 11/M05 A3025 RMK AO2 SLP132 T01061050 403060011 $
KHTH 
27nm E 
290635Z AUTO 31007KT 10SM CLR 27/M04 A3004 RMK A01
TAF
KMEV 
39nm NW 
290540Z 2906/3006 VRB04KT P6SM SKC FM290800 13006KT P6SM FEW110 SCT250 FM292100 26011G18KT P6SM FEW070 SCT120 BKN180 FM300000 30010KT P6SM VCSH SCT070 BKN100
KTVL 
43nm NW 
290540Z 2906/3006 19003KT P6SM SKC FM291900 02009KT P6SM FEW070 BKN160 FM292200 19009G16KT P6SM VCSH SCT050 BKN120
KCXP 
47nm NW 
290540Z 2906/3006 VRB04KT P6SM SKC FM292100 26010G16KT P6SM FEW070 SCT110 BKN180 FM300000 26010KT P6SM VCSH SCT070 BKN100
NOTAMs
Click for the latest NOTAMs
NOTAMs are issued by the DoD/FAA and will open in a separate window not controlled by AirNav.

 

 
 

Would you like to see your business listed on this page?

 If your business provides an interesting product or service to pilots, flight crews, aircraft, or users of the Sweetwater (US Marine Corps) Airport, you should consider listing it here.  To start the listing process, click on the button below
 
Add a business
 

Other Pages about Sweetwater (US Marine Corps) Airport

Update a link
 
Copyright © AirNav, LLC. All rights reserved. Privacy Policy  Contact